sensor_id;sensor_type;location;lat;lon;timestamp;P1;durP1;ratioP1;P2;durP2;ratioP2
10920;SDS011;5513;50.580;8.818;2023-04-24T00:02:21;2.60;;;1.40;;
10920;SDS011;5513;50.580;8.818;2023-04-24T00:04:50;5.30;;;1.57;;
10920;SDS011;5513;50.580;8.818;2023-04-24T00:07:18;1.70;;;1.37;;
10920;SDS011;5513;50.580;8.818;2023-04-24T00:09:47;2.03;;;1.37;;
10920;SDS011;5513;50.580;8.818;2023-04-24T00:12:16;2.23;;;1.40;;
10920;SDS011;5513;50.580;8.818;2023-04-24T00:14:45;2.20;;;1.53;;
10920;SDS011;5513;50.580;8.818;2023-04-24T00:17:14;2.73;;;1.60;;
10920;SDS011;5513;50.580;8.818;2023-04-24T00:19:42;2.73;;;1.47;;
10920;SDS011;5513;50.580;8.818;2023-04-24T00:22:10;3.67;;;1.30;;
10920;SDS011;5513;50.580;8.818;2023-04-24T00:24:39;2.97;;;1.70;;
10920;SDS011;5513;50.580;8.818;2023-04-24T00:27:08;4.90;;;1.60;;
10920;SDS011;5513;50.580;8.818;2023-04-24T00:29:36;2.50;;;1.43;;
10920;SDS011;5513;50.580;8.818;2023-04-24T00:32:06;3.93;;;2.00;;
10920;SDS011;5513;50.580;8.818;2023-04-24T00:34:34;3.90;;;1.63;;
10920;SDS011;5513;50.580;8.818;2023-04-24T00:37:02;3.27;;;1.67;;
10920;SDS011;5513;50.580;8.818;2023-04-24T00:39:31;2.77;;;1.57;;
10920;SDS011;5513;50.580;8.818;2023-04-24T00:42:02;2.80;;;1.93;;
10920;SDS011;5513;50.580;8.818;2023-04-24T00:44:32;3.03;;;1.67;;
10920;SDS011;5513;50.580;8.818;2023-04-24T00:47:01;1.97;;;1.67;;
10920;SDS011;5513;50.580;8.818;2023-04-24T00:49:31;2.00;;;1.50;;
10920;SDS011;5513;50.580;8.818;2023-04-24T00:51:59;3.27;;;1.90;;
10920;SDS011;5513;50.580;8.818;2023-04-24T00:54:27;7.83;;;1.80;;
10920;SDS011;5513;50.580;8.818;2023-04-24T00:56:55;2.10;;;1.60;;
10920;SDS011;5513;50.580;8.818;2023-04-24T00:59:24;2.73;;;2.00;;
10920;SDS011;5513;50.580;8.818;2023-04-24T01:01:52;1.67;;;1.50;;
10920;SDS011;5513;50.580;8.818;2023-04-24T01:04:21;2.57;;;1.57;;
10920;SDS011;5513;50.580;8.818;2023-04-24T01:06:51;4.20;;;1.47;;
10920;SDS011;5513;50.580;8.818;2023-04-24T01:09:20;4.70;;;1.80;;
10920;SDS011;5513;50.580;8.818;2023-04-24T01:11:51;2.73;;;1.50;;
10920;SDS011;5513;50.580;8.818;2023-04-24T01:14:19;2.67;;;1.30;;
10920;SDS011;5513;50.580;8.818;2023-04-24T01:16:47;2.17;;;1.40;;
10920;SDS011;5513;50.580;8.818;2023-04-24T01:19:16;2.17;;;1.50;;
10920;SDS011;5513;50.580;8.818;2023-04-24T01:21:46;2.47;;;1.53;;
10920;SDS011;5513;50.580;8.818;2023-04-24T01:24:20;2.00;;;1.40;;
10920;SDS011;5513;50.580;8.818;2023-04-24T01:26:48;2.53;;;1.40;;
10920;SDS011;5513;50.580;8.818;2023-04-24T01:29:16;3.00;;;1.37;;
10920;SDS011;5513;50.580;8.818;2023-04-24T01:31:44;3.87;;;1.40;;
10920;SDS011;5513;50.580;8.818;2023-04-24T01:34:13;2.77;;;1.30;;
10920;SDS011;5513;50.580;8.818;2023-04-24T01:36:42;1.90;;;1.40;;
10920;SDS011;5513;50.580;8.818;2023-04-24T01:39:13;1.40;;;1.20;;
10920;SDS011;5513;50.580;8.818;2023-04-24T01:41:45;3.10;;;1.47;;
10920;SDS011;5513;50.580;8.818;2023-04-24T01:44:13;1.63;;;1.30;;
10920;SDS011;5513;50.580;8.818;2023-04-24T01:46:42;1.73;;;1.20;;
10920;SDS011;5513;50.580;8.818;2023-04-24T01:49:10;1.77;;;1.20;;
10920;SDS011;5513;50.580;8.818;2023-04-24T01:51:38;3.03;;;1.47;;
10920;SDS011;5513;50.580;8.818;2023-04-24T01:54:07;2.93;;;1.40;;
10920;SDS011;5513;50.580;8.818;2023-04-24T01:56:35;5.80;;;1.97;;
10920;SDS011;5513;50.580;8.818;2023-04-24T01:59:10;1.80;;;1.70;;
10920;SDS011;5513;50.580;8.818;2023-04-24T02:01:39;2.47;;;1.70;;
10920;SDS011;5513;50.580;8.818;2023-04-24T02:04:07;3.40;;;1.83;;
10920;SDS011;5513;50.580;8.818;2023-04-24T02:06:36;2.97;;;1.80;;
10920;SDS011;5513;50.580;8.818;2023-04-24T02:09:04;2.67;;;1.70;;
10920;SDS011;5513;50.580;8.818;2023-04-24T02:11:33;2.53;;;1.60;;
10920;SDS011;5513;50.580;8.818;2023-04-24T02:14:01;4.07;;;1.77;;
10920;SDS011;5513;50.580;8.818;2023-04-24T02:16:30;2.13;;;1.50;;
10920;SDS011;5513;50.580;8.818;2023-04-24T02:19:00;3.63;;;1.93;;
10920;SDS011;5513;50.580;8.818;2023-04-24T02:21:28;1.73;;;1.53;;
10920;SDS011;5513;50.580;8.818;2023-04-24T02:23:58;1.73;;;1.60;;
10920;SDS011;5513;50.580;8.818;2023-04-24T02:26:26;3.27;;;2.07;;
10920;SDS011;5513;50.580;8.818;2023-04-24T02:28:54;4.33;;;1.97;;
10920;SDS011;5513;50.580;8.818;2023-04-24T02:31:23;1.83;;;1.70;;
10920;SDS011;5513;50.580;8.818;2023-04-24T02:33:52;4.00;;;2.17;;
10920;SDS011;5513;50.580;8.818;2023-04-24T02:36:20;4.50;;;2.07;;
10920;SDS011;5513;50.580;8.818;2023-04-24T02:38:49;5.07;;;2.60;;
10920;SDS011;5513;50.580;8.818;2023-04-24T02:41:17;3.83;;;2.40;;
10920;SDS011;5513;50.580;8.818;2023-04-24T02:43:46;6.83;;;3.70;;
10920;SDS011;5513;50.580;8.818;2023-04-24T02:46:14;4.23;;;3.70;;
10920;SDS011;5513;50.580;8.818;2023-04-24T02:48:42;4.10;;;3.70;;
10920;SDS011;5513;50.580;8.818;2023-04-24T02:51:12;7.37;;;4.30;;
10920;SDS011;5513;50.580;8.818;2023-04-24T02:53:40;4.80;;;4.30;;
10920;SDS011;5513;50.580;8.818;2023-04-24T02:56:08;5.20;;;4.70;;
10920;SDS011;5513;50.580;8.818;2023-04-24T02:58:38;5.50;;;5.00;;
10920;SDS011;5513;50.580;8.818;2023-04-24T03:01:07;7.10;;;5.83;;
10920;SDS011;5513;50.580;8.818;2023-04-24T03:03:36;8.33;;;5.80;;
10920;SDS011;5513;50.580;8.818;2023-04-24T03:06:05;8.53;;;6.00;;
10920;SDS011;5513;50.580;8.818;2023-04-24T03:08:36;7.30;;;5.53;;
10920;SDS011;5513;50.580;8.818;2023-04-24T03:11:04;8.93;;;5.80;;
10920;SDS011;5513;50.580;8.818;2023-04-24T03:13:33;6.40;;;5.50;;
10920;SDS011;5513;50.580;8.818;2023-04-24T03:16:01;7.30;;;5.50;;
10920;SDS011;5513;50.580;8.818;2023-04-24T03:18:29;6.43;;;5.33;;
10920;SDS011;5513;50.580;8.818;2023-04-24T03:20:58;7.00;;;5.03;;
10920;SDS011;5513;50.580;8.818;2023-04-24T03:23:26;6.07;;;5.47;;
10920;SDS011;5513;50.580;8.818;2023-04-24T03:25:55;7.57;;;5.47;;
10920;SDS011;5513;50.580;8.818;2023-04-24T03:28:24;5.90;;;5.30;;
10920;SDS011;5513;50.580;8.818;2023-04-24T03:30:53;6.43;;;5.83;;
10920;SDS011;5513;50.580;8.818;2023-04-24T03:33:21;5.70;;;5.20;;
10920;SDS011;5513;50.580;8.818;2023-04-24T03:35:49;7.97;;;5.70;;
10920;SDS011;5513;50.580;8.818;2023-04-24T03:38:17;6.63;;;4.90;;
10920;SDS011;5513;50.580;8.818;2023-04-24T03:40:46;7.80;;;4.30;;
10920;SDS011;5513;50.580;8.818;2023-04-24T03:43:15;4.53;;;3.97;;
10920;SDS011;5513;50.580;8.818;2023-04-24T03:45:45;4.00;;;3.50;;
10920;SDS011;5513;50.580;8.818;2023-04-24T03:48:13;4.13;;;3.50;;
10920;SDS011;5513;50.580;8.818;2023-04-24T03:50:43;7.40;;;3.53;;
10920;SDS011;5513;50.580;8.818;2023-04-24T03:53:11;4.73;;;3.93;;
10920;SDS011;5513;50.580;8.818;2023-04-24T03:55:39;4.50;;;3.50;;
10920;SDS011;5513;50.580;8.818;2023-04-24T03:58:07;5.63;;;3.63;;
10920;SDS011;5513;50.580;8.818;2023-04-24T04:00:37;3.40;;;3.10;;
10920;SDS011;5513;50.580;8.818;2023-04-24T04:03:06;2.80;;;2.60;;
10920;SDS011;5513;50.580;8.818;2023-04-24T04:05:35;3.10;;;2.20;;
10920;SDS011;5513;50.580;8.818;2023-04-24T04:08:03;3.93;;;1.90;;
10920;SDS011;5513;50.580;8.818;2023-04-24T04:10:31;3.17;;;1.70;;
10920;SDS011;5513;50.580;8.818;2023-04-24T04:12:59;1.80;;;1.70;;
10920;SDS011;5513;50.580;8.818;2023-04-24T04:15:28;2.40;;;1.60;;
10920;SDS011;5513;50.580;8.818;2023-04-24T04:18:00;4.50;;;1.80;;
10920;SDS011;5513;50.580;8.818;2023-04-24T04:20:28;3.00;;;1.80;;
10920;SDS011;5513;50.580;8.818;2023-04-24T04:22:56;2.57;;;1.87;;
10920;SDS011;5513;50.580;8.818;2023-04-24T04:25:25;1.90;;;1.70;;
10920;SDS011;5513;50.580;8.818;2023-04-24T04:27:53;3.37;;;1.97;;
10920;SDS011;5513;50.580;8.818;2023-04-24T04:30:21;3.00;;;1.90;;
10920;SDS011;5513;50.580;8.818;2023-04-24T04:32:49;1.97;;;1.70;;
10920;SDS011;5513;50.580;8.818;2023-04-24T04:35:19;2.27;;;1.90;;
10920;SDS011;5513;50.580;8.818;2023-04-24T04:37:48;1.97;;;1.80;;
10920;SDS011;5513;50.580;8.818;2023-04-24T04:40:17;1.97;;;1.77;;
10920;SDS011;5513;50.580;8.818;2023-04-24T04:42:45;3.50;;;1.90;;
10920;SDS011;5513;50.580;8.818;2023-04-24T04:45:14;3.27;;;2.00;;
10920;SDS011;5513;50.580;8.818;2023-04-24T04:47:43;2.27;;;1.90;;
10920;SDS011;5513;50.580;8.818;2023-04-24T04:50:12;2.30;;;1.73;;
10920;SDS011;5513;50.580;8.818;2023-04-24T04:52:41;3.33;;;2.03;;
10920;SDS011;5513;50.580;8.818;2023-04-24T04:55:10;2.23;;;2.03;;
10920;SDS011;5513;50.580;8.818;2023-04-24T04:57:40;2.90;;;2.00;;
10920;SDS011;5513;50.580;8.818;2023-04-24T05:00:08;2.67;;;1.93;;
10920;SDS011;5513;50.580;8.818;2023-04-24T05:02:38;2.10;;;1.90;;
10920;SDS011;5513;50.580;8.818;2023-04-24T05:05:07;4.67;;;2.10;;
10920;SDS011;5513;50.580;8.818;2023-04-24T05:07:36;2.60;;;2.10;;
10920;SDS011;5513;50.580;8.818;2023-04-24T05:10:07;2.30;;;2.10;;
10920;SDS011;5513;50.580;8.818;2023-04-24T05:12:36;2.40;;;2.20;;
10920;SDS011;5513;50.580;8.818;2023-04-24T05:15:04;12.57;;;7.13;;
10920;SDS011;5513;50.580;8.818;2023-04-24T05:17:33;3.67;;;2.43;;
10920;SDS011;5513;50.580;8.818;2023-04-24T05:20:02;4.57;;;2.53;;
10920;SDS011;5513;50.580;8.818;2023-04-24T05:22:31;2.73;;;1.90;;
10920;SDS011;5513;50.580;8.818;2023-04-24T05:25:00;2.27;;;2.07;;
10920;SDS011;5513;50.580;8.818;2023-04-24T05:27:30;2.50;;;2.27;;
10920;SDS011;5513;50.580;8.818;2023-04-24T05:29:59;2.63;;;2.10;;
10920;SDS011;5513;50.580;8.818;2023-04-24T05:32:27;2.57;;;2.30;;
10920;SDS011;5513;50.580;8.818;2023-04-24T05:34:56;4.60;;;2.23;;
10920;SDS011;5513;50.580;8.818;2023-04-24T05:37:24;4.40;;;2.33;;
10920;SDS011;5513;50.580;8.818;2023-04-24T05:39:52;2.80;;;2.07;;
10920;SDS011;5513;50.580;8.818;2023-04-24T05:42:20;2.80;;;1.97;;
10920;SDS011;5513;50.580;8.818;2023-04-24T05:44:50;2.33;;;2.03;;
10920;SDS011;5513;50.580;8.818;2023-04-24T05:47:23;2.73;;;2.23;;
10920;SDS011;5513;50.580;8.818;2023-04-24T05:49:52;2.63;;;2.00;;
10920;SDS011;5513;50.580;8.818;2023-04-24T05:52:21;3.43;;;2.00;;
10920;SDS011;5513;50.580;8.818;2023-04-24T05:54:49;3.93;;;2.60;;
10920;SDS011;5513;50.580;8.818;2023-04-24T05:57:17;3.40;;;2.20;;
10920;SDS011;5513;50.580;8.818;2023-04-24T05:59:45;2.70;;;2.00;;
10920;SDS011;5513;50.580;8.818;2023-04-24T06:02:15;2.97;;;2.40;;
10920;SDS011;5513;50.580;8.818;2023-04-24T06:04:44;2.83;;;2.50;;
10920;SDS011;5513;50.580;8.818;2023-04-24T06:07:13;4.57;;;2.50;;
10920;SDS011;5513;50.580;8.818;2023-04-24T06:09:42;2.50;;;2.30;;
10920;SDS011;5513;50.580;8.818;2023-04-24T06:12:11;3.93;;;2.37;;
10920;SDS011;5513;50.580;8.818;2023-04-24T06:14:39;2.20;;;2.00;;
10920;SDS011;5513;50.580;8.818;2023-04-24T06:17:07;3.13;;;2.30;;
10920;SDS011;5513;50.580;8.818;2023-04-24T06:19:37;2.33;;;2.10;;
10920;SDS011;5513;50.580;8.818;2023-04-24T06:22:05;3.20;;;2.30;;
10920;SDS011;5513;50.580;8.818;2023-04-24T06:24:36;3.37;;;2.20;;
10920;SDS011;5513;50.580;8.818;2023-04-24T06:27:04;4.17;;;2.60;;
10920;SDS011;5513;50.580;8.818;2023-04-24T06:29:32;4.40;;;2.70;;
10920;SDS011;5513;50.580;8.818;2023-04-24T06:32:00;3.43;;;2.53;;
10920;SDS011;5513;50.580;8.818;2023-04-24T06:34:29;3.47;;;3.00;;
10920;SDS011;5513;50.580;8.818;2023-04-24T06:37:00;4.60;;;3.10;;
10920;SDS011;5513;50.580;8.818;2023-04-24T06:39:28;4.73;;;3.10;;
10920;SDS011;5513;50.580;8.818;2023-04-24T06:41:56;4.93;;;3.03;;
10920;SDS011;5513;50.580;8.818;2023-04-24T06:44:25;4.07;;;2.97;;
10920;SDS011;5513;50.580;8.818;2023-04-24T06:46:53;5.57;;;3.00;;
10920;SDS011;5513;50.580;8.818;2023-04-24T06:49:21;3.33;;;3.03;;
10920;SDS011;5513;50.580;8.818;2023-04-24T06:51:49;3.97;;;3.50;;
10920;SDS011;5513;50.580;8.818;2023-04-24T06:54:19;3.30;;;2.80;;
10920;SDS011;5513;50.580;8.818;2023-04-24T06:56:47;3.83;;;3.20;;
10920;SDS011;5513;50.580;8.818;2023-04-24T06:59:16;4.77;;;3.50;;
10920;SDS011;5513;50.580;8.818;2023-04-24T07:01:44;4.67;;;3.70;;
10920;SDS011;5513;50.580;8.818;2023-04-24T07:04:13;3.60;;;3.30;;
10920;SDS011;5513;50.580;8.818;2023-04-24T07:06:42;4.00;;;3.60;;
10920;SDS011;5513;50.580;8.818;2023-04-24T07:09:10;5.53;;;3.63;;
10920;SDS011;5513;50.580;8.818;2023-04-24T07:11:41;4.70;;;3.60;;
10920;SDS011;5513;50.580;8.818;2023-04-24T07:14:11;4.17;;;3.57;;
10920;SDS011;5513;50.580;8.818;2023-04-24T07:16:39;3.87;;;3.30;;
10920;SDS011;5513;50.580;8.818;2023-04-24T07:19:08;6.43;;;3.90;;
10920;SDS011;5513;50.580;8.818;2023-04-24T07:21:36;4.33;;;3.93;;
10920;SDS011;5513;50.580;8.818;2023-04-24T07:24:04;4.40;;;4.00;;
10920;SDS011;5513;50.580;8.818;2023-04-24T07:26:35;4.40;;;3.90;;
10920;SDS011;5513;50.580;8.818;2023-04-24T07:29:06;7.10;;;3.80;;
10920;SDS011;5513;50.580;8.818;2023-04-24T07:31:35;4.93;;;3.73;;
10920;SDS011;5513;50.580;8.818;2023-04-24T07:34:03;5.23;;;4.00;;
10920;SDS011;5513;50.580;8.818;2023-04-24T07:36:32;6.33;;;4.47;;
10920;SDS011;5513;50.580;8.818;2023-04-24T07:39:00;6.30;;;4.20;;
10920;SDS011;5513;50.580;8.818;2023-04-24T07:41:28;4.80;;;4.30;;
10920;SDS011;5513;50.580;8.818;2023-04-24T07:43:57;4.90;;;4.50;;
10920;SDS011;5513;50.580;8.818;2023-04-24T07:46:27;5.13;;;4.03;;
10920;SDS011;5513;50.580;8.818;2023-04-24T07:48:57;6.13;;;4.10;;
10920;SDS011;5513;50.580;8.818;2023-04-24T07:51:39;5.20;;;3.93;;
10920;SDS011;5513;50.580;8.818;2023-04-24T07:54:08;4.87;;;3.80;;
10920;SDS011;5513;50.580;8.818;2023-04-24T07:56:36;4.10;;;3.60;;
10920;SDS011;5513;50.580;8.818;2023-04-24T07:59:06;4.03;;;3.63;;
10920;SDS011;5513;50.580;8.818;2023-04-24T08:01:36;4.03;;;3.60;;
10920;SDS011;5513;50.580;8.818;2023-04-24T08:04:04;5.00;;;3.10;;
10920;SDS011;5513;50.580;8.818;2023-04-24T08:06:32;6.20;;;3.30;;
10920;SDS011;5513;50.580;8.818;2023-04-24T08:09:01;3.60;;;3.03;;
10920;SDS011;5513;50.580;8.818;2023-04-24T08:11:30;3.00;;;2.70;;
10920;SDS011;5513;50.580;8.818;2023-04-24T08:13:58;3.30;;;2.97;;
10920;SDS011;5513;50.580;8.818;2023-04-24T08:16:26;4.87;;;3.43;;
10920;SDS011;5513;50.580;8.818;2023-04-24T08:18:56;5.07;;;3.07;;
10920;SDS011;5513;50.580;8.818;2023-04-24T08:21:24;5.00;;;3.07;;
10920;SDS011;5513;50.580;8.818;2023-04-24T08:23:53;3.83;;;3.10;;
10920;SDS011;5513;50.580;8.818;2023-04-24T08:26:21;5.03;;;3.30;;
10920;SDS011;5513;50.580;8.818;2023-04-24T08:28:50;3.57;;;3.00;;
10920;SDS011;5513;50.580;8.818;2023-04-24T08:31:18;3.57;;;2.90;;
10920;SDS011;5513;50.580;8.818;2023-04-24T08:33:47;3.83;;;2.83;;
10920;SDS011;5513;50.580;8.818;2023-04-24T08:36:19;3.37;;;2.73;;
10920;SDS011;5513;50.580;8.818;2023-04-24T08:38:51;3.20;;;2.90;;
10920;SDS011;5513;50.580;8.818;2023-04-24T08:41:20;3.10;;;2.80;;
10920;SDS011;5513;50.580;8.818;2023-04-24T08:43:52;5.13;;;2.63;;
10920;SDS011;5513;50.580;8.818;2023-04-24T08:46:21;3.10;;;2.80;;
10920;SDS011;5513;50.580;8.818;2023-04-24T08:48:50;3.27;;;2.70;;
10920;SDS011;5513;50.580;8.818;2023-04-24T08:51:23;2.97;;;2.60;;
10920;SDS011;5513;50.580;8.818;2023-04-24T08:53:54;3.77;;;2.60;;
10920;SDS011;5513;50.580;8.818;2023-04-24T08:56:22;3.50;;;2.40;;
10920;SDS011;5513;50.580;8.818;2023-04-24T08:58:51;3.70;;;2.60;;
10920;SDS011;5513;50.580;8.818;2023-04-24T09:01:21;2.57;;;2.20;;
10920;SDS011;5513;50.580;8.818;2023-04-24T09:03:53;4.20;;;2.70;;
10920;SDS011;5513;50.580;8.818;2023-04-24T09:06:26;2.40;;;2.20;;
10920;SDS011;5513;50.580;8.818;2023-04-24T09:08:54;2.67;;;2.20;;
10920;SDS011;5513;50.580;8.818;2023-04-24T09:11:23;3.10;;;2.10;;
10920;SDS011;5513;50.580;8.818;2023-04-24T09:13:53;2.77;;;2.10;;
10920;SDS011;5513;50.580;8.818;2023-04-24T09:16:22;4.37;;;2.97;;
10920;SDS011;5513;50.580;8.818;2023-04-24T09:18:51;2.97;;;2.50;;
10920;SDS011;5513;50.580;8.818;2023-04-24T09:21:20;4.40;;;4.00;;
10920;SDS011;5513;50.580;8.818;2023-04-24T09:23:59;4.23;;;2.70;;
10920;SDS011;5513;50.580;8.818;2023-04-24T09:26:29;2.50;;;2.30;;
10920;SDS011;5513;50.580;8.818;2023-04-24T09:28:59;2.43;;;2.03;;
10920;SDS011;5513;50.580;8.818;2023-04-24T09:31:28;5.40;;;2.50;;
10920;SDS011;5513;50.580;8.818;2023-04-24T09:33:58;2.80;;;2.33;;
10920;SDS011;5513;50.580;8.818;2023-04-24T09:36:29;2.37;;;1.93;;
10920;SDS011;5513;50.580;8.818;2023-04-24T09:39:01;1.90;;;1.70;;
10920;SDS011;5513;50.580;8.818;2023-04-24T09:41:31;2.50;;;1.87;;
10920;SDS011;5513;50.580;8.818;2023-04-24T09:44:10;1.83;;;1.70;;
10920;SDS011;5513;50.580;8.818;2023-04-24T09:46:40;3.23;;;1.83;;
10920;SDS011;5513;50.580;8.818;2023-04-24T09:49:09;1.93;;;1.57;;
10920;SDS011;5513;50.580;8.818;2023-04-24T09:51:40;2.10;;;1.80;;
10920;SDS011;5513;50.580;8.818;2023-04-24T09:54:14;2.23;;;1.60;;
10920;SDS011;5513;50.580;8.818;2023-04-24T09:56:44;2.57;;;1.77;;
10920;SDS011;5513;50.580;8.818;2023-04-24T09:59:13;2.47;;;2.13;;
10920;SDS011;5513;50.580;8.818;2023-04-24T10:01:42;2.63;;;2.30;;
10920;SDS011;5513;50.580;8.818;2023-04-24T10:04:17;2.37;;;1.90;;
10920;SDS011;5513;50.580;8.818;2023-04-24T10:06:47;2.97;;;1.50;;
10920;SDS011;5513;50.580;8.818;2023-04-24T10:09:18;1.70;;;1.53;;
10920;SDS011;5513;50.580;8.818;2023-04-24T10:11:48;2.17;;;1.63;;
10920;SDS011;5513;50.580;8.818;2023-04-24T10:14:18;1.90;;;1.70;;
10920;SDS011;5513;50.580;8.818;2023-04-24T10:16:47;2.00;;;1.70;;
10920;SDS011;5513;50.580;8.818;2023-04-24T10:19:16;3.70;;;2.57;;
10920;SDS011;5513;50.580;8.818;2023-04-24T10:21:48;3.00;;;1.97;;
10920;SDS011;5513;50.580;8.818;2023-04-24T10:24:18;2.60;;;1.90;;
10920;SDS011;5513;50.580;8.818;2023-04-24T10:26:48;2.40;;;1.83;;
10920;SDS011;5513;50.580;8.818;2023-04-24T10:29:16;1.73;;;1.43;;
10920;SDS011;5513;50.580;8.818;2023-04-24T10:31:48;2.30;;;1.73;;
10920;SDS011;5513;50.580;8.818;2023-04-24T10:34:16;1.83;;;1.40;;
10920;SDS011;5513;50.580;8.818;2023-04-24T10:36:50;1.20;;;1.10;;
10920;SDS011;5513;50.580;8.818;2023-04-24T10:39:24;1.20;;;1.10;;
10920;SDS011;5513;50.580;8.818;2023-04-24T10:41:54;3.30;;;1.50;;
10920;SDS011;5513;50.580;8.818;2023-04-24T10:44:24;1.13;;;0.87;;
10920;SDS011;5513;50.580;8.818;2023-04-24T10:46:53;1.20;;;1.10;;
10920;SDS011;5513;50.580;8.818;2023-04-24T10:49:27;1.73;;;0.80;;
10920;SDS011;5513;50.580;8.818;2023-04-24T10:51:59;1.70;;;0.90;;
10920;SDS011;5513;50.580;8.818;2023-04-24T10:54:34;0.90;;;0.83;;
10920;SDS011;5513;50.580;8.818;2023-04-24T11:00:18;1.27;;;0.80;;
10920;SDS011;5513;50.580;8.818;2023-04-24T11:02:48;0.60;;;0.60;;
10920;SDS011;5513;50.580;8.818;2023-04-24T11:05:19;0.80;;;0.60;;
10920;SDS011;5513;50.580;8.818;2023-04-24T11:10:41;1.17;;;0.60;;
10920;SDS011;5513;50.580;8.818;2023-04-24T11:13:14;2.47;;;2.27;;
10920;SDS011;5513;50.580;8.818;2023-04-24T11:15:43;2.43;;;1.67;;
10920;SDS011;5513;50.580;8.818;2023-04-24T11:18:14;0.97;;;0.93;;
10920;SDS011;5513;50.580;8.818;2023-04-24T11:20:43;1.13;;;0.60;;
10920;SDS011;5513;50.580;8.818;2023-04-24T11:23:12;0.83;;;0.60;;
10920;SDS011;5513;50.580;8.818;2023-04-24T11:25:42;0.77;;;0.50;;
10920;SDS011;5513;50.580;8.818;2023-04-24T11:28:14;0.70;;;0.50;;
10920;SDS011;5513;50.580;8.818;2023-04-24T11:30:44;0.67;;;0.40;;
10920;SDS011;5513;50.580;8.818;2023-04-24T11:33:12;0.50;;;0.50;;
10920;SDS011;5513;50.580;8.818;2023-04-24T11:35:48;0.40;;;0.40;;
10920;SDS011;5513;50.580;8.818;2023-04-24T11:38:18;0.67;;;0.63;;
10920;SDS011;5513;50.580;8.818;2023-04-24T11:40:52;1.70;;;0.40;;
10920;SDS011;5513;50.580;8.818;2023-04-24T11:43:22;0.40;;;0.40;;
10920;SDS011;5513;50.580;8.818;2023-04-24T11:45:50;0.50;;;0.50;;
10920;SDS011;5513;50.580;8.818;2023-04-24T11:48:19;0.50;;;0.50;;
10920;SDS011;5513;50.580;8.818;2023-04-24T11:50:49;1.57;;;0.50;;
10920;SDS011;5513;50.580;8.818;2023-04-24T11:53:18;0.60;;;0.43;;
10920;SDS011;5513;50.580;8.818;2023-04-24T11:55:47;2.40;;;1.67;;
10920;SDS011;5513;50.580;8.818;2023-04-24T11:58:18;1.10;;;1.03;;
10920;SDS011;5513;50.580;8.818;2023-04-24T12:00:55;0.50;;;0.50;;
10920;SDS011;5513;50.580;8.818;2023-04-24T12:03:24;0.77;;;0.60;;
10920;SDS011;5513;50.580;8.818;2023-04-24T12:05:53;0.90;;;0.50;;
10920;SDS011;5513;50.580;8.818;2023-04-24T12:08:33;1.97;;;1.77;;
10920;SDS011;5513;50.580;8.818;2023-04-24T12:11:04;0.80;;;0.40;;
10920;SDS011;5513;50.580;8.818;2023-04-24T12:13:35;0.50;;;0.50;;
10920;SDS011;5513;50.580;8.818;2023-04-24T12:16:04;0.60;;;0.60;;
10920;SDS011;5513;50.580;8.818;2023-04-24T12:18:32;0.47;;;0.47;;
10920;SDS011;5513;50.580;8.818;2023-04-24T12:21:17;1.23;;;0.50;;
10920;SDS011;5513;50.580;8.818;2023-04-24T12:23:48;0.87;;;0.50;;
10920;SDS011;5513;50.580;8.818;2023-04-24T12:26:19;1.20;;;1.10;;
10920;SDS011;5513;50.580;8.818;2023-04-24T12:28:50;0.40;;;0.40;;
10920;SDS011;5513;50.580;8.818;2023-04-24T12:31:18;0.83;;;0.50;;
10920;SDS011;5513;50.580;8.818;2023-04-24T12:33:48;0.73;;;0.60;;
10920;SDS011;5513;50.580;8.818;2023-04-24T12:36:17;0.73;;;0.60;;
10920;SDS011;5513;50.580;8.818;2023-04-24T12:38:47;0.63;;;0.53;;
10920;SDS011;5513;50.580;8.818;2023-04-24T12:41:20;0.93;;;0.77;;
10920;SDS011;5513;50.580;8.818;2023-04-24T12:43:53;0.70;;;0.60;;
10920;SDS011;5513;50.580;8.818;2023-04-24T12:46:22;0.80;;;0.70;;
10920;SDS011;5513;50.580;8.818;2023-04-24T12:48:51;0.80;;;0.80;;
10920;SDS011;5513;50.580;8.818;2023-04-24T12:51:19;1.60;;;1.33;;
10920;SDS011;5513;50.580;8.818;2023-04-24T12:53:48;2.93;;;1.67;;
10920;SDS011;5513;50.580;8.818;2023-04-24T12:56:17;2.83;;;1.57;;
10920;SDS011;5513;50.580;8.818;2023-04-24T12:58:45;5.37;;;2.20;;
10920;SDS011;5513;50.580;8.818;2023-04-24T13:01:14;3.30;;;1.67;;
10920;SDS011;5513;50.580;8.818;2023-04-24T13:03:43;2.93;;;1.57;;
10920;SDS011;5513;50.580;8.818;2023-04-24T13:06:12;3.13;;;2.00;;
10920;SDS011;5513;50.580;8.818;2023-04-24T13:08:43;2.83;;;1.60;;
10920;SDS011;5513;50.580;8.818;2023-04-24T13:11:11;2.83;;;1.83;;
10920;SDS011;5513;50.580;8.818;2023-04-24T13:13:40;2.87;;;2.10;;
10920;SDS011;5513;50.580;8.818;2023-04-24T13:16:08;2.23;;;1.93;;
10920;SDS011;5513;50.580;8.818;2023-04-24T13:18:38;2.80;;;1.87;;
10920;SDS011;5513;50.580;8.818;2023-04-24T13:21:06;4.77;;;3.30;;
10920;SDS011;5513;50.580;8.818;2023-04-24T13:23:35;4.87;;;2.30;;
10920;SDS011;5513;50.580;8.818;2023-04-24T13:26:03;2.40;;;2.07;;
10920;SDS011;5513;50.580;8.818;2023-04-24T13:28:31;4.00;;;2.17;;
10920;SDS011;5513;50.580;8.818;2023-04-24T13:30:59;2.77;;;2.07;;
10920;SDS011;5513;50.580;8.818;2023-04-24T13:33:28;5.40;;;2.63;;
10920;SDS011;5513;50.580;8.818;2023-04-24T13:35:58;4.37;;;2.50;;
10920;SDS011;5513;50.580;8.818;2023-04-24T13:38:26;3.20;;;2.60;;
10920;SDS011;5513;50.580;8.818;2023-04-24T13:40:55;3.70;;;2.80;;
10920;SDS011;5513;50.580;8.818;2023-04-24T13:43:24;5.27;;;2.80;;
10920;SDS011;5513;50.580;8.818;2023-04-24T13:45:52;4.43;;;2.40;;
10920;SDS011;5513;50.580;8.818;2023-04-24T13:48:21;4.00;;;2.90;;
10920;SDS011;5513;50.580;8.818;2023-04-24T13:50:49;7.43;;;2.90;;
10920;SDS011;5513;50.580;8.818;2023-04-24T13:53:18;4.93;;;3.17;;
10920;SDS011;5513;50.580;8.818;2023-04-24T13:55:47;8.13;;;5.80;;
10920;SDS011;5513;50.580;8.818;2023-04-24T13:58:15;3.53;;;1.97;;
10920;SDS011;5513;50.580;8.818;2023-04-24T14:00:43;9.27;;;5.60;;
10920;SDS011;5513;50.580;8.818;2023-04-24T14:03:12;3.23;;;2.03;;
10920;SDS011;5513;50.580;8.818;2023-04-24T14:05:40;3.97;;;2.30;;
10920;SDS011;5513;50.580;8.818;2023-04-24T14:08:09;5.30;;;2.60;;
10920;SDS011;5513;50.580;8.818;2023-04-24T14:10:39;3.50;;;2.50;;
10920;SDS011;5513;50.580;8.818;2023-04-24T14:13:07;3.63;;;2.33;;
10920;SDS011;5513;50.580;8.818;2023-04-24T14:15:36;4.00;;;2.10;;
10920;SDS011;5513;50.580;8.818;2023-04-24T14:18:04;2.90;;;2.30;;
10920;SDS011;5513;50.580;8.818;2023-04-24T14:20:32;3.50;;;2.37;;
10920;SDS011;5513;50.580;8.818;2023-04-24T14:23:00;4.10;;;2.40;;
10920;SDS011;5513;50.580;8.818;2023-04-24T14:25:29;3.03;;;2.07;;
10920;SDS011;5513;50.580;8.818;2023-04-24T14:27:59;3.50;;;1.87;;
10920;SDS011;5513;50.580;8.818;2023-04-24T14:30:27;2.97;;;2.07;;
10920;SDS011;5513;50.580;8.818;2023-04-24T14:32:56;2.60;;;1.80;;
10920;SDS011;5513;50.580;8.818;2023-04-24T14:35:24;4.67;;;2.30;;
10920;SDS011;5513;50.580;8.818;2023-04-24T14:37:55;6.13;;;2.00;;
10920;SDS011;5513;50.580;8.818;2023-04-24T14:40:24;2.23;;;1.70;;
10920;SDS011;5513;50.580;8.818;2023-04-24T14:43:13;2.80;;;2.13;;
10920;SDS011;5513;50.580;8.818;2023-04-24T14:45:41;3.17;;;2.47;;
10920;SDS011;5513;50.580;8.818;2023-04-24T14:48:10;3.10;;;2.03;;
10920;SDS011;5513;50.580;8.818;2023-04-24T14:50:38;3.10;;;2.20;;
10920;SDS011;5513;50.580;8.818;2023-04-24T14:53:07;4.20;;;2.30;;
10920;SDS011;5513;50.580;8.818;2023-04-24T14:55:35;4.03;;;2.83;;
10920;SDS011;5513;50.580;8.818;2023-04-24T14:58:04;2.70;;;2.20;;
10920;SDS011;5513;50.580;8.818;2023-04-24T15:00:34;3.20;;;2.30;;
10920;SDS011;5513;50.580;8.818;2023-04-24T15:03:02;4.63;;;2.27;;
10920;SDS011;5513;50.580;8.818;2023-04-24T15:05:35;7.20;;;2.90;;
10920;SDS011;5513;50.580;8.818;2023-04-24T15:08:04;5.83;;;2.50;;
10920;SDS011;5513;50.580;8.818;2023-04-24T15:10:33;3.83;;;2.50;;
10920;SDS011;5513;50.580;8.818;2023-04-24T15:13:02;3.53;;;2.60;;
10920;SDS011;5513;50.580;8.818;2023-04-24T15:15:30;6.10;;;2.77;;
10920;SDS011;5513;50.580;8.818;2023-04-24T15:18:00;5.70;;;3.13;;
10920;SDS011;5513;50.580;8.818;2023-04-24T15:20:28;4.13;;;2.80;;